createdAt,value
2018-09-10T00:01:29.275Z,3.62
2018-09-10T00:03:59.220Z,5.33
2018-09-10T00:06:29.236Z,5.00
2018-09-10T00:08:59.299Z,3.83
2018-09-10T00:11:29.297Z,4.12
2018-09-10T00:13:59.385Z,4.20
2018-09-10T00:16:29.285Z,4.20
2018-09-10T00:18:59.371Z,4.12
2018-09-10T00:21:29.387Z,5.62
2018-09-10T00:23:59.285Z,5.43
2018-09-10T00:26:29.466Z,6.33
2018-09-10T00:28:59.357Z,4.25
2018-09-10T00:31:29.407Z,3.70
2018-09-10T00:33:59.316Z,3.30
2018-09-10T00:36:35.946Z,4.42
2018-09-10T00:39:09.056Z,5.83
2018-09-10T00:41:38.720Z,4.35
2018-09-10T00:44:08.235Z,4.40
2018-09-10T00:46:37.762Z,5.37
2018-09-10T00:49:07.430Z,3.83
2018-09-10T00:51:36.868Z,5.10
2018-09-10T00:54:06.215Z,4.50
2018-09-10T00:56:35.544Z,3.90
2018-09-10T00:59:04.873Z,4.23
2018-09-10T01:01:34.155Z,4.72
2018-09-10T01:04:03.470Z,5.40
2018-09-10T01:06:32.778Z,4.73
2018-09-10T01:09:02.290Z,3.87
2018-09-10T01:11:31.624Z,4.60
2018-09-10T01:14:00.978Z,5.67
2018-09-10T01:16:30.330Z,4.27
2018-09-10T01:18:59.617Z,5.87
2018-09-10T01:21:29.461Z,5.30
2018-09-10T01:23:59.514Z,5.50
2018-09-10T01:26:29.522Z,5.00
2018-09-10T01:28:59.501Z,6.40
2018-09-10T01:31:29.429Z,4.95
2018-09-10T01:34:04.729Z,5.10
2018-09-10T01:36:34.047Z,5.03
2018-09-10T01:39:03.408Z,4.50
2018-09-10T01:41:32.753Z,6.40
2018-09-10T01:44:02.138Z,5.33
2018-09-10T01:46:31.447Z,6.10
2018-09-10T01:49:00.753Z,4.30
2018-09-10T01:51:30.168Z,7.03
2018-09-10T01:53:59.691Z,6.10
2018-09-10T01:56:29.593Z,5.08
2018-09-10T01:58:59.639Z,5.33
2018-09-10T02:01:29.626Z,5.87
2018-09-10T02:03:59.661Z,5.40
2018-09-10T02:06:29.827Z,4.45
2018-09-10T02:08:59.703Z,5.33
2018-09-10T02:11:29.616Z,4.10
2018-09-10T02:13:59.803Z,5.22
2018-09-10T02:16:29.642Z,5.83
2018-09-10T02:18:59.629Z,4.12
2018-09-10T02:21:29.738Z,5.85
2018-09-10T02:23:59.750Z,6.80
2018-09-10T02:26:29.694Z,4.08
2018-09-10T02:28:59.976Z,4.20
2018-09-10T02:31:29.685Z,4.60
2018-09-10T02:33:59.685Z,5.53
2018-09-10T02:36:29.884Z,4.92
2018-09-10T02:38:59.737Z,3.87
2018-09-10T02:41:29.793Z,5.10
2018-09-10T02:43:59.780Z,5.28
2018-09-10T02:46:29.881Z,4.30
2018-09-10T02:48:59.715Z,5.95
2018-09-10T02:51:29.801Z,5.10
2018-09-10T02:53:59.812Z,6.17
2018-09-10T02:56:29.777Z,4.87
2018-09-10T02:59:00.203Z,6.78
2018-09-10T03:01:29.901Z,6.45
2018-09-10T03:03:59.840Z,5.22
2018-09-10T03:06:31.709Z,4.74
2018-09-10T03:09:01.082Z,4.23
2018-09-10T03:11:30.387Z,4.73
2018-09-10T03:13:59.890Z,6.58
2018-09-10T03:16:29.874Z,5.67
2018-09-10T03:18:59.812Z,4.53
2018-09-10T03:21:29.959Z,5.25
2018-09-10T03:23:59.932Z,4.97
2018-09-10T03:26:29.879Z,5.03
2018-09-10T03:28:59.859Z,5.95
2018-09-10T03:31:29.957Z,5.05
2018-09-10T03:33:59.894Z,5.67
2018-09-10T03:36:29.942Z,5.20
2018-09-10T03:38:59.951Z,4.65
2018-09-10T03:41:30.040Z,5.90
2018-09-10T03:43:59.913Z,4.22
2018-09-10T03:46:29.927Z,5.90
2018-09-10T03:49:00.122Z,4.60
2018-09-10T03:51:29.953Z,4.50
2018-09-10T03:53:59.929Z,4.97
2018-09-10T03:56:30.081Z,5.00
2018-09-10T03:58:59.976Z,4.12
2018-09-10T04:01:29.994Z,7.08
2018-09-10T04:03:59.973Z,4.42
2018-09-10T04:06:29.994Z,4.58
2018-09-10T04:08:59.985Z,5.60
2018-09-10T04:11:29.954Z,7.08
2018-09-10T04:13:59.930Z,4.35
2018-09-10T04:16:29.993Z,4.42
2018-09-10T04:19:00.041Z,4.53
2018-09-10T04:21:30.046Z,4.65
2018-09-10T04:24:00.191Z,4.20
2018-09-10T04:26:30.070Z,6.40
2018-09-10T04:29:00.021Z,4.70
2018-09-10T04:31:30.007Z,4.35
2018-09-10T04:34:00.076Z,5.83
2018-09-10T04:36:30.072Z,4.10
2018-09-10T04:39:00.057Z,4.85
2018-09-10T04:41:41.453Z,5.62
2018-09-10T04:44:10.793Z,4.80
2018-09-10T04:46:40.425Z,4.23
2018-09-10T04:49:10.343Z,5.63
2018-09-10T04:51:39.655Z,4.53
2018-09-10T04:54:08.950Z,4.40
2018-09-10T04:56:39.132Z,3.97
2018-09-10T04:59:08.494Z,4.77
2018-09-10T05:01:37.818Z,7.43
2018-09-10T05:04:07.147Z,5.80
2018-09-10T05:06:36.461Z,4.10
2018-09-10T05:09:07.846Z,3.60
2018-09-10T05:11:37.154Z,5.43
2018-09-10T05:14:06.458Z,3.93
2018-09-10T05:16:35.816Z,5.20
2018-09-10T05:19:05.177Z,3.40
2018-09-10T05:21:34.468Z,4.33
2018-09-10T05:24:03.820Z,5.70
2018-09-10T05:26:33.147Z,6.33
2018-09-10T05:29:02.435Z,5.77
2018-09-10T05:31:31.778Z,4.50
2018-09-10T05:34:01.166Z,5.72
2018-09-10T05:36:30.644Z,5.33
2018-09-10T05:39:00.177Z,5.92
2018-09-10T05:41:30.180Z,4.27
2018-09-10T05:44:00.293Z,5.30
2018-09-10T05:46:30.250Z,4.75
2018-09-10T05:49:00.263Z,4.42
2018-09-10T05:51:30.175Z,4.62
2018-09-10T05:54:00.281Z,6.75
2018-09-10T05:56:30.134Z,4.27
2018-09-10T05:59:00.249Z,4.08
2018-09-10T06:01:30.186Z,5.47
2018-09-10T06:04:00.261Z,5.20
2018-09-10T06:06:30.230Z,4.78
2018-09-10T06:09:00.219Z,5.62
2018-09-10T06:11:30.181Z,4.17
2018-09-10T06:14:00.256Z,7.75
2018-09-10T06:16:30.290Z,4.70
2018-09-10T06:19:00.244Z,4.20
2018-09-10T06:21:31.681Z,4.17
2018-09-10T06:24:01.860Z,6.30
2018-09-10T06:26:31.202Z,4.40
2018-09-10T06:29:00.547Z,6.47
2018-09-10T06:31:30.285Z,4.93
2018-09-10T06:34:00.349Z,7.53
2018-09-10T06:36:30.238Z,6.35
2018-09-10T06:39:00.391Z,7.40
2018-09-10T06:41:30.276Z,7.53
2018-09-10T06:44:00.266Z,7.08
2018-09-10T06:46:30.279Z,4.62
2018-09-10T06:49:00.371Z,5.42
2018-09-10T06:51:30.473Z,4.67
2018-09-10T06:54:00.294Z,5.37
2018-09-10T06:56:30.266Z,6.12
2018-09-10T06:59:00.302Z,7.30
2018-09-10T07:01:30.281Z,6.92
2018-09-10T07:04:00.717Z,7.08
2018-09-10T07:06:30.409Z,6.80
2018-09-10T07:09:00.453Z,9.20
2018-09-10T07:11:30.302Z,5.53
2018-09-10T07:14:00.369Z,6.28
2018-09-10T07:16:30.466Z,7.83
2018-09-10T07:19:00.649Z,5.67
2018-09-10T07:21:30.534Z,5.58
2018-09-10T07:24:00.359Z,6.40
2018-09-10T07:26:30.359Z,9.60
2018-09-10T07:29:00.346Z,5.03
2018-09-10T07:31:30.335Z,6.03
2018-09-10T07:34:00.398Z,5.83
2018-09-10T07:36:30.355Z,5.72
2018-09-10T07:39:00.441Z,7.08
2018-09-10T07:41:30.502Z,5.20
2018-09-10T07:44:00.486Z,6.62
2018-09-10T07:46:30.393Z,7.83
2018-09-10T07:49:00.573Z,7.15
2018-09-10T07:51:30.429Z,6.90
2018-09-10T07:54:00.650Z,6.22
2018-09-10T07:56:30.530Z,8.98
2018-09-10T07:59:00.589Z,8.93
2018-09-10T08:01:30.625Z,7.85
2018-09-10T08:04:00.484Z,6.45
2018-09-10T08:06:30.543Z,9.43
2018-09-10T08:09:00.711Z,9.75
2018-09-10T08:11:30.573Z,10.82
2018-09-10T08:14:00.528Z,8.40
2018-09-10T08:16:30.605Z,10.00
2018-09-10T08:19:00.562Z,12.78
2018-09-10T08:21:30.497Z,12.18
2018-09-10T08:24:00.561Z,10.68
2018-09-10T08:26:30.595Z,13.03
2018-09-10T08:29:00.540Z,15.88
2018-09-10T08:31:30.569Z,12.53
2018-09-10T08:34:00.475Z,12.68
2018-09-10T08:36:30.533Z,12.20
2018-09-10T08:39:00.499Z,11.70
2018-09-10T08:41:30.509Z,12.45
2018-09-10T08:44:00.511Z,12.47
2018-09-10T08:46:30.500Z,11.93
2018-09-10T08:49:00.554Z,12.70
2018-09-10T08:51:30.564Z,12.25
2018-09-10T08:54:00.692Z,13.30
2018-09-10T08:56:30.513Z,12.35
2018-09-10T08:59:00.520Z,10.50
2018-09-10T09:01:30.797Z,11.70
2018-09-10T09:04:00.587Z,11.30
2018-09-10T09:06:31.655Z,11.03
2018-09-10T09:09:00.937Z,10.90
2018-09-10T09:11:30.553Z,11.15
2018-09-10T09:14:00.577Z,15.38
2018-09-10T09:16:30.679Z,13.43
2018-09-10T09:19:00.627Z,12.47
2018-09-10T09:21:30.699Z,12.70
2018-09-10T09:24:00.580Z,13.07
2018-09-10T09:26:30.634Z,12.75
2018-09-10T09:29:00.620Z,13.93
2018-09-10T09:31:30.595Z,12.23
2018-09-10T09:34:00.605Z,12.30
2018-09-10T09:36:35.947Z,12.93
2018-09-10T09:39:12.234Z,13.20
2018-09-10T09:41:46.792Z,16.33
2018-09-10T09:44:21.506Z,14.03
2018-09-10T09:46:50.851Z,14.53
2018-09-10T09:49:20.200Z,13.60
2018-09-10T09:51:49.531Z,13.27
2018-09-10T09:54:18.836Z,12.63
2018-09-10T09:56:48.152Z,13.13
2018-09-10T09:59:17.510Z,13.43
2018-09-10T10:01:52.355Z,11.80
2018-09-10T10:04:21.732Z,10.95
2018-09-10T10:06:50.999Z,11.93
2018-09-10T10:09:20.313Z,12.40
2018-09-10T10:11:49.859Z,11.55
2018-09-10T10:14:19.181Z,11.37
2018-09-10T10:16:48.540Z,11.13
2018-09-10T10:19:17.946Z,13.57
2018-09-10T10:21:47.307Z,8.43
2018-09-10T10:24:16.649Z,12.20
2018-09-10T10:26:45.957Z,8.37
2018-09-10T10:29:15.307Z,13.07
2018-09-10T10:31:44.693Z,9.13
2018-09-10T10:34:14.096Z,9.50
2018-09-10T10:36:43.515Z,8.50
2018-09-10T10:39:12.886Z,8.87
2018-09-10T10:41:42.158Z,9.20
2018-09-10T10:44:11.507Z,8.83
2018-09-10T10:46:40.840Z,6.93
2018-09-10T10:49:10.223Z,8.47
2018-09-10T10:51:39.584Z,9.40
2018-09-10T10:54:08.897Z,10.83
2018-09-10T10:56:38.245Z,8.27
2018-09-10T10:59:07.563Z,8.77
2018-09-10T11:01:36.957Z,8.07
2018-09-10T11:04:06.336Z,8.30
2018-09-10T11:06:35.658Z,7.17
2018-09-10T11:09:06.854Z,6.00
2018-09-10T11:11:36.345Z,5.50
2018-09-10T11:14:05.783Z,7.35
2018-09-10T11:16:35.171Z,6.97
2018-09-10T11:19:04.624Z,6.23
2018-09-10T11:21:33.932Z,6.00
2018-09-10T11:24:03.290Z,8.47
2018-09-10T11:26:32.639Z,5.33
2018-09-10T11:29:02.122Z,4.60
2018-09-10T11:31:31.435Z,5.40
2018-09-10T11:34:00.879Z,11.60
2018-09-10T11:36:31.088Z,6.62
2018-09-10T11:39:00.982Z,7.17
2018-09-10T11:41:30.934Z,8.35
2018-09-10T11:44:00.983Z,6.83
2018-09-10T11:46:31.016Z,6.25
2018-09-10T11:49:01.017Z,6.87
2018-09-10T11:51:30.975Z,6.33
2018-09-10T11:54:01.037Z,5.97
2018-09-10T11:56:30.929Z,5.08
2018-09-10T11:59:01.023Z,8.00
2018-09-10T12:01:30.990Z,7.17
2018-09-10T12:04:00.987Z,6.97
2018-09-10T12:06:31.032Z,5.70
2018-09-10T12:09:01.223Z,6.57
2018-09-10T12:11:30.966Z,6.58
2018-09-10T12:14:00.942Z,6.28
2018-09-10T12:16:30.978Z,8.60
2018-09-10T12:19:01.014Z,7.87
2018-09-10T12:21:31.137Z,7.15
2018-09-10T12:24:01.187Z,4.65
2018-09-10T12:26:31.107Z,7.85
2018-09-10T12:29:01.025Z,6.58
2018-09-10T12:31:31.066Z,8.10
2018-09-10T12:34:01.039Z,5.55
2018-09-10T12:36:31.156Z,6.47
2018-09-10T12:39:01.105Z,4.80
2018-09-10T12:41:31.082Z,7.03
2018-09-10T12:44:01.016Z,7.55
2018-09-10T12:46:31.050Z,6.53
2018-09-10T12:49:01.135Z,5.40
2018-09-10T12:51:31.118Z,7.85
2018-09-10T12:54:01.078Z,6.80
2018-09-10T12:56:31.063Z,4.87
2018-09-10T12:59:01.413Z,6.62
2018-09-10T13:01:31.216Z,8.25
2018-09-10T13:04:01.077Z,6.25
2018-09-10T13:06:31.171Z,6.35
2018-09-10T13:09:01.072Z,7.13
2018-09-10T13:11:31.184Z,7.90
2018-09-10T13:14:01.220Z,7.00
2018-09-10T13:16:31.214Z,5.35
2018-09-10T13:19:01.191Z,6.33
2018-09-10T13:21:31.353Z,6.87
2018-09-10T13:24:01.116Z,7.70
2018-09-10T13:26:31.098Z,6.53
2018-09-10T13:29:01.210Z,8.60
2018-09-10T13:31:31.100Z,5.72
2018-09-10T13:34:01.162Z,13.22
2018-09-10T13:36:31.201Z,8.93
2018-09-10T13:39:01.184Z,9.60
2018-09-10T13:41:31.270Z,8.28
2018-09-10T13:44:01.195Z,6.60
2018-09-10T13:46:31.308Z,5.20
2018-09-10T13:49:01.338Z,4.72
2018-09-10T13:51:31.203Z,7.00
2018-09-10T13:54:01.263Z,5.83
2018-09-10T13:56:31.217Z,9.83
2018-09-10T13:59:01.410Z,8.33
2018-09-10T14:01:31.230Z,4.50
2018-09-10T14:04:01.319Z,5.75
2018-09-10T14:06:31.270Z,10.53
2018-09-10T14:09:01.215Z,9.93
2018-09-10T14:11:31.269Z,7.62
2018-09-10T14:14:01.284Z,6.55
2018-09-10T14:16:31.304Z,6.10
2018-09-10T14:19:01.346Z,8.38
2018-09-10T14:21:31.285Z,7.35
2018-09-10T14:24:01.279Z,6.30
2018-09-10T14:26:31.261Z,8.33
2018-09-10T14:29:01.290Z,6.87
2018-09-10T14:31:31.361Z,6.78
2018-09-10T14:34:01.302Z,6.80
2018-09-10T14:36:31.321Z,5.22
2018-09-10T14:39:01.344Z,9.90
2018-09-10T14:41:31.230Z,5.40
2018-09-10T14:44:01.273Z,6.58
2018-09-10T14:46:31.305Z,5.10
2018-09-10T14:49:01.418Z,7.40
2018-09-10T14:51:31.375Z,5.70
2018-09-10T14:54:01.408Z,5.42
2018-09-10T15:10:38.526Z,7.67
2018-09-10T15:13:07.857Z,10.93
2018-09-10T15:15:37.198Z,7.83
2018-09-10T15:18:06.596Z,7.87
2018-09-10T15:20:35.949Z,8.65
2018-09-10T15:23:05.280Z,9.10
2018-09-10T15:25:34.672Z,6.57
2018-09-10T15:28:03.956Z,6.53
2018-09-10T15:30:33.306Z,5.90
2018-09-10T15:33:02.598Z,4.80
2018-09-10T15:35:31.899Z,8.90
2018-09-10T15:38:01.446Z,6.62
2018-09-10T15:40:31.538Z,6.05
2018-09-10T15:43:01.516Z,3.87
2018-09-10T15:45:31.582Z,4.60
2018-09-10T15:48:01.739Z,7.90
2018-09-10T15:50:31.596Z,6.20
2018-09-10T15:53:01.796Z,8.18
2018-09-10T15:55:31.483Z,6.50
2018-09-10T15:58:01.461Z,9.88
2018-09-10T16:00:31.576Z,6.10
2018-09-10T16:03:01.624Z,8.60
2018-09-10T16:05:31.518Z,7.45
2018-09-10T16:08:02.306Z,9.33
2018-09-10T16:10:31.643Z,11.27
2018-09-10T16:13:01.637Z,7.78
2018-09-10T16:15:31.513Z,6.73
2018-09-10T16:18:01.563Z,7.00
2018-09-10T16:20:31.823Z,6.03
2018-09-10T16:23:01.629Z,5.92
2018-09-10T16:25:31.616Z,7.03
2018-09-10T16:28:01.620Z,5.78
2018-09-10T16:30:31.691Z,5.33
2018-09-10T16:33:01.815Z,6.08
2018-09-10T16:35:31.851Z,5.78
2018-09-10T16:38:01.592Z,5.37
2018-09-10T16:40:31.566Z,5.00
2018-09-10T16:43:01.621Z,9.08
2018-09-10T16:45:31.619Z,7.87
2018-09-10T16:48:01.860Z,9.43
2018-09-10T16:50:31.706Z,4.75
2018-09-10T16:53:01.691Z,5.87
2018-09-10T16:55:31.666Z,8.55
2018-09-10T16:58:01.633Z,5.95
2018-09-10T17:00:31.652Z,6.00
2018-09-10T17:03:01.599Z,5.13
2018-09-10T17:05:31.705Z,6.25
2018-09-10T17:08:01.632Z,5.75
2018-09-10T17:10:31.790Z,9.20
2018-09-10T17:13:01.672Z,3.98
2018-09-10T17:15:31.653Z,6.35
2018-09-10T17:18:01.686Z,4.83
2018-09-10T17:20:31.658Z,4.80
2018-09-10T17:23:01.892Z,6.45
2018-09-10T17:25:31.960Z,5.37
2018-09-10T17:28:01.718Z,4.17
2018-09-10T17:30:31.870Z,6.17
2018-09-10T17:33:01.898Z,4.72
2018-09-10T17:35:31.808Z,6.03
2018-09-10T17:38:01.793Z,5.25
2018-09-10T17:40:31.764Z,6.93
2018-09-10T17:43:01.809Z,8.33
2018-09-10T17:45:31.806Z,6.25
2018-09-10T17:48:01.763Z,6.37
2018-09-10T17:50:31.906Z,6.12
2018-09-10T17:53:01.999Z,4.97
2018-09-10T17:55:32.132Z,5.75
2018-09-10T17:58:01.839Z,4.75
2018-09-10T18:00:31.867Z,5.35
2018-09-10T18:03:01.823Z,4.35
2018-09-10T18:05:31.865Z,5.35
2018-09-10T18:08:01.916Z,6.87
2018-09-10T18:10:31.868Z,7.53
2018-09-10T18:13:01.866Z,4.92
2018-09-10T18:15:31.833Z,7.72
2018-09-10T18:18:03.001Z,7.12
2018-09-10T18:20:32.362Z,6.07
2018-09-10T18:23:01.793Z,7.35
2018-09-10T18:25:32.036Z,5.87
2018-09-10T18:28:01.810Z,5.60
2018-09-10T18:30:31.968Z,7.60
2018-09-10T18:33:01.913Z,7.75
2018-09-10T18:35:31.867Z,8.08
2018-09-10T18:38:01.907Z,5.00
2018-09-10T18:40:31.894Z,6.78
2018-09-10T18:43:01.915Z,6.08
2018-09-10T18:45:32.051Z,6.97
2018-09-10T18:48:02.011Z,8.00
2018-09-10T18:50:31.929Z,6.60
2018-09-10T18:53:01.929Z,5.17
2018-09-10T18:55:32.323Z,8.58
2018-09-10T18:58:01.995Z,7.58
2018-09-10T19:00:32.140Z,8.40
2018-09-10T19:03:01.890Z,7.12
2018-09-10T19:05:31.947Z,7.55
2018-09-10T19:08:01.965Z,8.75
2018-09-10T19:10:31.949Z,7.03
2018-09-10T19:13:02.022Z,5.97
2018-09-10T19:15:31.955Z,6.10
2018-09-10T19:18:02.096Z,4.42
2018-09-10T19:20:32.121Z,6.12
2018-09-10T19:23:02.162Z,6.12
2018-09-10T19:25:32.049Z,8.55
2018-09-10T19:28:01.968Z,7.72
2018-09-10T19:30:32.132Z,6.45
2018-09-10T19:33:02.082Z,8.68
2018-09-10T19:35:32.108Z,5.90
2018-09-10T19:38:02.022Z,6.00
2018-09-10T19:40:32.037Z,5.90
2018-09-10T19:43:02.047Z,7.72
2018-09-10T19:45:32.419Z,6.12
2018-09-10T19:48:02.005Z,6.80
2018-09-10T19:50:32.091Z,6.83
2018-09-10T19:53:02.134Z,7.70
2018-09-10T19:55:32.007Z,7.08
2018-09-10T19:58:02.091Z,6.33
2018-09-10T20:00:32.122Z,5.90
2018-09-10T20:03:02.250Z,9.08
2018-09-10T20:05:32.182Z,7.65
2018-09-10T20:08:02.260Z,6.53
2018-09-10T20:10:32.090Z,7.00
2018-09-10T20:13:02.053Z,9.08
2018-09-10T20:15:32.155Z,11.10
2018-09-10T20:18:02.101Z,4.35
2018-09-10T20:20:32.259Z,8.88
2018-09-10T20:23:02.164Z,7.37
2018-09-10T20:25:32.062Z,8.55
2018-09-10T20:28:02.165Z,6.55
2018-09-10T20:30:32.595Z,11.12
2018-09-10T20:33:02.181Z,6.35
2018-09-10T20:35:32.212Z,6.72
2018-09-10T20:38:02.209Z,5.95
2018-09-10T20:40:32.319Z,5.62
2018-09-10T20:43:02.147Z,9.70
2018-09-10T20:45:32.155Z,7.53
2018-09-10T20:48:02.231Z,8.53
2018-09-10T20:50:32.359Z,6.83
2018-09-10T20:53:02.235Z,7.85
2018-09-10T20:55:32.210Z,12.97
2018-09-10T20:58:02.353Z,8.50
2018-09-10T21:00:32.190Z,9.38
2018-09-10T21:03:02.185Z,9.28
2018-09-10T21:05:32.301Z,9.13
2018-09-10T21:08:02.264Z,8.20
2018-09-10T21:10:32.453Z,8.30
2018-09-10T21:13:02.312Z,10.35
2018-09-10T21:15:32.311Z,8.55
2018-09-10T21:18:02.249Z,6.53
2018-09-10T21:20:32.279Z,7.60
2018-09-10T21:23:02.465Z,7.58
2018-09-10T21:25:32.224Z,12.20
2018-09-10T21:28:02.253Z,5.15
2018-09-10T21:30:32.369Z,8.18
2018-09-10T21:33:02.288Z,7.75
2018-09-10T21:35:32.455Z,10.63
2018-09-10T21:38:02.366Z,6.67
2018-09-10T21:40:32.403Z,7.58
2018-09-10T21:43:02.377Z,6.10
2018-09-10T21:45:32.435Z,7.45
2018-09-10T21:48:02.268Z,5.85
2018-09-10T21:50:32.396Z,6.53
2018-09-10T21:53:02.346Z,4.67
2018-09-10T21:55:32.477Z,5.37
2018-09-10T21:58:02.305Z,8.97
2018-09-10T22:00:32.436Z,7.15
2018-09-10T22:03:02.426Z,6.37
2018-09-10T22:05:32.337Z,6.28
2018-09-10T22:08:02.436Z,3.98
2018-09-10T22:10:32.387Z,8.30
2018-09-10T22:13:02.370Z,6.90
2018-09-10T22:15:32.474Z,4.83
2018-09-10T22:18:02.430Z,5.55
2018-09-10T22:20:32.318Z,7.03
2018-09-10T22:23:02.444Z,7.67
2018-09-10T22:25:35.690Z,7.63
2018-09-10T22:28:05.217Z,4.23
2018-09-10T22:30:35.168Z,5.07
2018-09-10T22:33:04.528Z,8.50
2018-09-10T22:35:33.902Z,6.60
2018-09-10T22:38:03.288Z,11.27
2018-09-10T22:40:32.616Z,5.73
2018-09-10T22:43:02.423Z,3.50
2018-09-10T22:45:32.518Z,7.28
2018-09-10T22:48:02.555Z,3.87
2018-09-10T22:50:32.465Z,5.53
2018-09-10T22:53:02.435Z,5.58
2018-09-10T22:55:32.425Z,9.28
2018-09-10T22:58:02.484Z,6.45
2018-09-10T23:00:32.522Z,5.83
2018-09-10T23:03:02.541Z,6.78
2018-09-10T23:05:32.532Z,6.87
2018-09-10T23:08:02.493Z,8.23
2018-09-10T23:10:32.673Z,6.55
2018-09-10T23:13:02.491Z,4.83
2018-09-10T23:15:32.543Z,5.80
2018-09-10T23:18:02.551Z,7.25
2018-09-10T23:20:32.584Z,5.00
2018-09-10T23:23:02.569Z,8.15
2018-09-10T23:25:32.512Z,5.75
2018-09-10T23:28:02.578Z,7.03
2018-09-10T23:30:32.550Z,4.25
2018-09-10T23:33:02.571Z,5.67
2018-09-10T23:35:32.603Z,7.37
2018-09-10T23:38:02.607Z,7.47
2018-09-10T23:40:32.544Z,6.58
2018-09-10T23:43:02.546Z,10.38
2018-09-10T23:45:32.541Z,7.45
2018-09-10T23:48:02.630Z,8.10
2018-09-10T23:50:32.616Z,7.75
2018-09-10T23:53:02.719Z,8.43
2018-09-10T23:55:32.723Z,7.40
2018-09-10T23:58:02.571Z,9.03
